Time;durP1;ratioP1;P1;durP2;ratioP2;P2;SDS_P1;SDS_P2;PMS_P1;PMS_P2;Temp;Humidity;BMP_temperature;BMP_pressure;BME280_temperature;BME280_humidity;BME280_pressure;Samples;Min_cycle;Max_cycle;Signal;HPM_P1;HPM_P2
2024/01/05 00:00:59;;;;;;;24.52;9.57;;;;;;;;;;2060428;28;20034;-78
2024/01/05 00:02:19;;;;;;;18.48;8.60;;;;;;;;;;2070591;28;20034;-78
2024/01/05 00:03:40;;;;;;;19.83;8.40;;;;;;;;;;2065610;28;20080;-78
2024/01/05 00:05:01;;;;;;;24.15;9.15;;;;;;;;;;2062357;28;20034;-78
2024/01/05 00:06:22;;;;;;;21.75;9.60;;;;;;;;;;2064871;28;20030;-78
2024/01/05 00:07:43;;;;;;;24.65;8.93;;;;;;;;;;2065734;28;20050;-78
2024/01/05 00:09:04;;;;;;;22.63;9.00;;;;;;;;;;2059484;28;20110;-78
2024/01/05 00:10:25;;;;;;;22.40;8.70;;;;;;;;;;2069407;28;20037;-77
2024/01/05 00:11:47;;;;;;;23.52;8.80;;;;;;;;;;2067321;28;20047;-78
2024/01/05 00:13:08;;;;;;;;;;;;;;;;;;2066196;28;20114;-78
2024/01/05 00:14:29;;;;;;;22.40;8.77;;;;;;;;;;2065481;28;19906;-78
2024/01/05 00:15:50;;;;;;;17.55;8.70;;;;;;;;;;2061713;28;20039;-78
2024/01/05 00:17:11;;;;;;;16.38;8.35;;;;;;;;;;2064621;28;20517;-78
2024/01/05 00:18:32;;;;;;;20.52;9.25;;;;;;;;;;2063898;28;20137;-78
2024/01/05 00:19:53;;;;;;;15.30;8.02;;;;;;;;;;2070796;28;20034;-78
2024/01/05 00:21:20;;;;;;;22.42;9.30;;;;;;;;;;2063319;28;20375;-78
2024/01/05 00:22:41;;;;;;;21.30;8.40;;;;;;;;;;2071773;28;20076;-79
2024/01/05 00:24:02;;;;;;;18.30;8.50;;;;;;;;;;2059124;28;20097;-78
2024/01/05 00:25:23;;;;;;;18.08;8.00;;;;;;;;;;2057606;28;20037;-78
2024/01/05 00:26:44;;;;;;;19.38;8.25;;;;;;;;;;2057402;28;20038;-78
2024/01/05 00:28:05;;;;;;;25.48;8.52;;;;;;;;;;2070072;28;20417;-78
2024/01/05 00:29:26;;;;;;;15.60;7.40;;;;;;;;;;2059612;28;20035;-79
2024/01/05 00:30:47;;;;;;;16.75;7.93;;;;;;;;;;2064190;28;20505;-78
2024/01/05 00:32:07;;;;;;;20.42;9.90;;;;;;;;;;2064394;28;20042;-79
2024/01/05 00:33:28;;;;;;;19.50;7.93;;;;;;;;;;2060013;28;20045;-78
2024/01/05 00:34:49;;;;;;;20.02;8.18;;;;;;;;;;2066825;28;20505;-78
2024/01/05 00:36:10;;;;;;;19.13;9.32;;;;;;;;;;2065883;28;20056;-79
2024/01/05 00:37:31;;;;;;;19.95;8.77;;;;;;;;;;2070958;28;20041;-78
2024/01/05 00:38:52;;;;;;;16.27;7.82;;;;;;;;;;2067154;28;20040;-79
2024/01/05 00:40:13;;;;;;;19.17;8.75;;;;;;;;;;2065433;28;20414;-78
2024/01/05 00:41:34;;;;;;;20.60;8.32;;;;;;;;;;2068748;28;20049;-78
2024/01/05 00:42:55;;;;;;;15.00;7.10;;;;;;;;;;2062369;28;20038;-78
2024/01/05 00:44:16;;;;;;;17.40;7.68;;;;;;;;;;2065234;28;20022;-78
2024/01/05 00:45:37;;;;;;;23.08;8.30;;;;;;;;;;2057412;28;20486;-78
2024/01/05 00:46:57;;;;;;;21.10;8.73;;;;;;;;;;2056929;28;20058;-79
2024/01/05 00:48:18;;;;;;;22.60;8.65;;;;;;;;;;2065188;28;20031;-79
2024/01/05 00:49:39;;;;;;;14.77;7.97;;;;;;;;;;2059062;28;20031;-78
2024/01/05 00:51:00;;;;;;;23.65;8.75;;;;;;;;;;2057165;28;20403;-78
2024/01/05 00:52:21;;;;;;;16.70;7.93;;;;;;;;;;2064277;28;20038;-78
2024/01/05 00:53:42;;;;;;;16.95;8.48;;;;;;;;;;2066903;28;20426;-78
2024/01/05 00:55:03;;;;;;;32.20;9.10;;;;;;;;;;2062175;28;20030;-77
2024/01/05 00:56:24;;;;;;;21.88;8.23;;;;;;;;;;2056302;28;20031;-79
2024/01/05 00:57:45;;;;;;;21.10;8.98;;;;;;;;;;2062357;28;20030;-78
2024/01/05 00:59:07;;;;;;;;;;;;;;;;;;2061413;28;20077;-78
2024/01/05 01:00:28;;;;;;;29.23;8.73;;;;;;;;;;2057083;28;19965;-78
2024/01/05 01:01:49;;;;;;;21.70;9.20;;;;;;;;;;2060240;28;20038;-78
2024/01/05 01:03:10;;;;;;;22.30;8.32;;;;;;;;;;2060446;28;20031;-78
2024/01/05 01:04:30;;;;;;;14.90;8.20;;;;;;;;;;2060923;28;20449;-78
2024/01/05 01:05:51;;;;;;;18.65;8.30;;;;;;;;;;2065654;28;20049;-79
2024/01/05 01:07:12;;;;;;;24.05;8.90;;;;;;;;;;2064362;28;20120;-78
2024/01/05 01:08:33;;;;;;;16.25;8.43;;;;;;;;;;2070446;28;20072;-79
2024/01/05 01:09:54;;;;;;;19.77;8.05;;;;;;;;;;2055719;28;20046;-78
2024/01/05 01:11:15;;;;;;;18.38;8.25;;;;;;;;;;2056526;28;20082;-78
2024/01/05 01:12:36;;;;;;;16.95;8.45;;;;;;;;;;2065240;28;20033;-77
2024/01/05 01:13:57;;;;;;;20.23;8.68;;;;;;;;;;2073526;28;20030;-78
2024/01/05 01:15:18;;;;;;;15.52;8.10;;;;;;;;;;2072600;28;20026;-78
2024/01/05 01:16:39;;;;;;;20.23;8.02;;;;;;;;;;2073315;28;20025;-78
2024/01/05 01:18:00;;;;;;;21.38;8.98;;;;;;;;;;2072936;28;20088;-78
2024/01/05 01:19:20;;;;;;;24.38;8.07;;;;;;;;;;2072719;28;20022;-78
2024/01/05 01:20:41;;;;;;;22.63;8.10;;;;;;;;;;2072344;28;20038;-78
2024/01/05 01:22:03;;;;;;;12.75;8.25;;;;;;;;;;2077758;28;20350;-78
2024/01/05 01:23:24;;;;;;;22.92;8.85;;;;;;;;;;2063564;28;20487;-78
2024/01/05 01:24:45;;;;;;;18.60;6.97;;;;;;;;;;2064876;28;20034;-78
2024/01/05 01:26:06;;;;;;;14.43;6.95;;;;;;;;;;2061305;28;20026;-78
2024/01/05 01:27:27;;;;;;;14.85;8.05;;;;;;;;;;2070549;28;20018;-79
2024/01/05 01:28:47;;;;;;;24.45;8.93;;;;;;;;;;2064559;28;20399;-78
2024/01/05 01:30:09;;;;;;;16.13;8.68;;;;;;;;;;2062385;28;20034;-78
2024/01/05 01:31:29;;;;;;;22.35;8.15;;;;;;;;;;2058990;28;20089;-78
2024/01/05 01:32:50;;;;;;;21.65;8.02;;;;;;;;;;2065612;28;20037;-78
2024/01/05 01:34:11;;;;;;;19.90;7.72;;;;;;;;;;2060301;28;20399;-79
2024/01/05 01:35:32;;;;;;;15.38;7.78;;;;;;;;;;2064719;28;20038;-78
2024/01/05 01:36:53;;;;;;;14.60;7.88;;;;;;;;;;2065287;28;20148;-79
2024/01/05 01:38:14;;;;;;;16.75;7.22;;;;;;;;;;2064936;28;20058;-78
2024/01/05 01:39:35;;;;;;;26.05;8.55;;;;;;;;;;2065826;28;20030;-79
2024/01/05 01:40:56;;;;;;;21.75;8.65;;;;;;;;;;2065713;28;20033;-79
2024/01/05 01:42:17;;;;;;;21.23;7.97;;;;;;;;;;2065028;28;20069;-78
2024/01/05 01:43:44;;;;;;;13.35;8.15;;;;;;;;;;2064794;28;20398;-78
2024/01/05 01:45:05;;;;;;;15.40;8.05;;;;;;;;;;2064925;28;20022;-78
2024/01/05 01:46:26;;;;;;;21.45;8.20;;;;;;;;;;2063643;28;20053;-79
2024/01/05 01:47:47;;;;;;;17.02;7.00;;;;;;;;;;2065347;28;20023;-77
2024/01/05 01:49:08;;;;;;;16.95;7.93;;;;;;;;;;2063368;28;20027;-78
2024/01/05 01:50:29;;;;;;;23.17;8.73;;;;;;;;;;2066268;28;20080;-79
2024/01/05 01:51:51;;;;;;;25.13;7.93;;;;;;;;;;2066214;28;20038;-78
2024/01/05 01:53:13;;;;;;;13.88;7.78;;;;;;;;;;2064824;28;20038;-78
2024/01/05 01:54:34;;;;;;;;;;;;;;;;;;2064767;28;20030;-79
2024/01/05 01:55:55;;;;;;;17.77;7.78;;;;;;;;;;2068755;28;19906;-78
2024/01/05 01:57:17;;;;;;;14.90;7.03;;;;;;;;;;2074186;28;20034;-78
2024/01/05 01:58:38;;;;;;;;;;;;;;;;;;2066799;28;20026;-78
2024/01/05 01:59:59;;;;;;;13.52;7.75;;;;;;;;;;2066593;28;20017;-78
2024/01/05 02:01:20;;;;;;;20.30;8.80;;;;;;;;;;2058785;28;20030;-79
2024/01/05 02:02:41;;;;;;;13.73;7.43;;;;;;;;;;2059127;28;20041;-78
2024/01/05 02:04:03;;;;;;;14.50;7.32;;;;;;;;;;2059289;28;20493;-78
2024/01/05 02:05:24;;;;;;;16.67;7.80;;;;;;;;;;2064980;28;20038;-78
2024/01/05 02:06:45;;;;;;;16.77;8.17;;;;;;;;;;2067737;28;20033;-78
2024/01/05 02:08:07;;;;;;;17.02;6.90;;;;;;;;;;2075506;28;20486;-78
2024/01/05 02:09:27;;;;;;;13.40;7.47;;;;;;;;;;2067196;28;20030;-78
2024/01/05 02:10:48;;;;;;;22.38;8.05;;;;;;;;;;2072499;28;20030;-78
2024/01/05 02:12:09;;;;;;;17.42;8.10;;;;;;;;;;2065940;28;20521;-78
2024/01/05 02:13:31;;;;;;;12.20;7.57;;;;;;;;;;2082472;28;20034;-79
2024/01/05 02:14:52;;;;;;;14.75;7.60;;;;;;;;;;2083598;28;20022;-78
2024/01/05 02:16:13;;;;;;;16.52;8.10;;;;;;;;;;2076402;28;20026;-78
2024/01/05 02:17:34;;;;;;;10.60;7.22;;;;;;;;;;2080021;28;20435;-78
2024/01/05 02:18:55;;;;;;;19.80;7.72;;;;;;;;;;2074394;28;20096;-79
2024/01/05 02:20:16;;;;;;;21.23;7.85;;;;;;;;;;2072359;28;20049;-78
2024/01/05 02:21:43;;;;;;;14.88;7.53;;;;;;;;;;2075230;28;20430;-78
2024/01/05 02:23:05;;;;;;;14.48;7.88;;;;;;;;;;2074137;28;20346;-78
2024/01/05 02:24:26;;;;;;;17.27;8.40;;;;;;;;;;2061712;28;20027;-78
2024/01/05 02:25:47;;;;;;;17.40;7.95;;;;;;;;;;2068700;28;20030;-78
2024/01/05 02:27:08;;;;;;;19.15;7.70;;;;;;;;;;2067534;28;20031;-78
2024/01/05 02:28:29;;;;;;;14.80;7.35;;;;;;;;;;2065432;28;20446;-78
2024/01/05 02:29:50;;;;;;;12.95;8.82;;;;;;;;;;2065761;28;20038;-78
2024/01/05 02:31:11;;;;;;;14.43;8.07;;;;;;;;;;2071499;28;20029;-78
2024/01/05 02:32:32;;;;;;;14.05;7.60;;;;;;;;;;2074854;28;20041;-78
2024/01/05 02:33:53;;;;;;;13.73;8.02;;;;;;;;;;2074802;28;20038;-79
2024/01/05 02:35:14;;;;;;;17.00;7.72;;;;;;;;;;2075049;28;20045;-78
2024/01/05 02:36:34;;;;;;;15.25;7.20;;;;;;;;;;2074648;28;20045;-80
2024/01/05 02:37:55;;;;;;;14.63;7.45;;;;;;;;;;2066988;28;20034;-78
2024/01/05 02:39:16;;;;;;;14.30;7.30;;;;;;;;;;2074071;28;20332;-78
2024/01/05 02:40:37;;;;;;;11.70;7.00;;;;;;;;;;2074362;28;20037;-79
2024/01/05 02:41:58;;;;;;;16.48;8.00;;;;;;;;;;2073564;28;20041;-78
2024/01/05 02:43:19;;;;;;;13.40;7.15;;;;;;;;;;2074420;28;20481;-79
2024/01/05 02:44:40;;;;;;;15.52;7.80;;;;;;;;;;2075928;28;20034;-79
2024/01/05 02:46:00;;;;;;;13.98;7.00;;;;;;;;;;2066101;28;20037;-78
2024/01/05 02:47:21;;;;;;;13.93;7.22;;;;;;;;;;2072902;28;20034;-78
2024/01/05 02:48:42;;;;;;;14.70;7.22;;;;;;;;;;2058466;28;20406;-78
2024/01/05 02:50:03;;;;;;;14.02;7.68;;;;;;;;;;2058236;28;20034;-79
2024/01/05 02:51:24;;;;;;;15.10;7.63;;;;;;;;;;2066503;28;20041;-78
2024/01/05 02:52:45;;;;;;;16.80;8.68;;;;;;;;;;2062515;28;20046;-79
2024/01/05 02:54:06;;;;;;;14.05;7.50;;;;;;;;;;2066239;28;20030;-78
2024/01/05 02:55:27;;;;;;;15.15;7.25;;;;;;;;;;2064049;28;20503;-79
2024/01/05 02:56:49;;;;;;;16.45;7.40;;;;;;;;;;2069263;28;20030;-78
2024/01/05 02:58:10;;;;;;;16.85;7.28;;;;;;;;;;2075400;28;20379;-78
2024/01/05 02:59:31;;;;;;;11.77;7.55;;;;;;;;;;2073031;28;20038;-79
2024/01/05 03:00:52;;;;;;;16.77;7.40;;;;;;;;;;2063849;28;20034;-78
2024/01/05 03:02:13;;;;;;;10.93;7.60;;;;;;;;;;2063365;28;20389;-79
2024/01/05 03:03:34;;;;;;;9.40;7.28;;;;;;;;;;2058128;28;20415;-78
2024/01/05 03:04:55;;;;;;;13.05;7.60;;;;;;;;;;2063452;28;20041;-78
2024/01/05 03:06:17;;;;;;;17.40;7.70;;;;;;;;;;2065083;28;20096;-79
2024/01/05 03:07:40;;;;;;;15.10;7.80;;;;;;;;;;2062831;28;20046;-78
2024/01/05 03:09:01;;;;;;;18.38;8.07;;;;;;;;;;2074040;28;20025;-79
2024/01/05 03:10:22;;;;;;;18.15;7.93;;;;;;;;;;2066000;28;20041;-78
2024/01/05 03:11:43;;;;;;;10.63;6.35;;;;;;;;;;2071676;28;20034;-79
2024/01/05 03:13:04;;;;;;;12.15;6.80;;;;;;;;;;2058387;28;20498;-79
2024/01/05 03:14:25;;;;;;;15.95;7.40;;;;;;;;;;2062671;28;20065;-79
2024/01/05 03:15:45;;;;;;;14.82;7.10;;;;;;;;;;2060618;28;20038;-78
2024/01/05 03:17:06;;;;;;;14.80;7.93;;;;;;;;;;2062072;28;20031;-79
2024/01/05 03:18:27;;;;;;;16.90;7.43;;;;;;;;;;2065247;28;20041;-78
2024/01/05 03:19:48;;;;;;;18.50;8.18;;;;;;;;;;2070929;28;20045;-78
2024/01/05 03:21:09;;;;;;;17.95;7.45;;;;;;;;;;2069350;28;20505;-79
2024/01/05 03:22:30;;;;;;;16.25;7.65;;;;;;;;;;2065091;28;20046;-78
2024/01/05 03:23:51;;;;;;;17.75;7.25;;;;;;;;;;2067652;28;20316;-79
2024/01/05 03:25:12;;;;;;;16.50;8.63;;;;;;;;;;2073694;28;20026;-78
2024/01/05 03:26:33;;;;;;;14.35;6.72;;;;;;;;;;2074189;28;20030;-79
2024/01/05 03:27:54;;;;;;;20.30;7.93;;;;;;;;;;2065701;28;20031;-79
2024/01/05 03:29:15;;;;;;;11.98;7.78;;;;;;;;;;2071102;28;20416;-78
2024/01/05 03:30:37;;;;;;;12.40;7.22;;;;;;;;;;2065659;28;20093;-78
2024/01/05 03:31:58;;;;;;;15.85;7.68;;;;;;;;;;2065843;28;20045;-78
2024/01/05 03:33:19;;;;;;;12.23;7.03;;;;;;;;;;2070205;28;20030;-79
2024/01/05 03:34:40;;;;;;;11.30;7.07;;;;;;;;;;2073221;28;20041;-79
2024/01/05 03:36:01;;;;;;;14.45;7.50;;;;;;;;;;2065485;28;20082;-79
2024/01/05 03:37:22;;;;;;;15.77;7.82;;;;;;;;;;2065800;28;20149;-78
2024/01/05 03:38:43;;;;;;;15.30;9.45;;;;;;;;;;2061071;28;20039;-78
2024/01/05 03:40:04;;;;;;;12.70;7.63;;;;;;;;;;2071131;28;20042;-76
2024/01/05 03:41:25;;;;;;;13.38;6.95;;;;;;;;;;2065552;28;20037;-76
2024/01/05 03:42:46;;;;;;;11.43;7.35;;;;;;;;;;2063483;28;20414;-75
2024/01/05 03:44:07;;;;;;;16.85;7.85;;;;;;;;;;2068411;28;20088;-76
2024/01/05 03:45:27;;;;;;;17.00;7.88;;;;;;;;;;2073891;28;20029;-75
2024/01/05 03:46:52;;;;;;;16.90;7.80;;;;;;;;;;2074154;28;20033;-78
2024/01/05 03:48:14;;;;;;;11.70;7.55;;;;;;;;;;2065600;28;20031;-78
2024/01/05 03:49:36;;;;;;;17.15;7.90;;;;;;;;;;2071229;28;20063;-78
2024/01/05 03:50:57;;;;;;;14.10;7.22;;;;;;;;;;2063455;28;20406;-78
2024/01/05 03:52:17;;;;;;;10.60;7.38;;;;;;;;;;2070799;28;20038;-78
2024/01/05 03:53:38;;;;;;;14.60;7.75;;;;;;;;;;2064544;28;20039;-78
2024/01/05 03:55:01;;;;;;;19.40;7.32;;;;;;;;;;2068417;28;20030;-79
2024/01/05 03:56:22;;;;;;;13.30;7.85;;;;;;;;;;2064158;28;20038;-78
2024/01/05 03:57:43;;;;;;;13.05;7.50;;;;;;;;;;2069734;28;20033;-79
2024/01/05 03:59:05;;;;;;;21.42;7.50;;;;;;;;;;2073363;28;20041;-78
2024/01/05 04:00:26;;;;;;;17.55;8.00;;;;;;;;;;2065271;28;20105;-78
2024/01/05 04:01:47;;;;;;;11.98;6.93;;;;;;;;;;2063885;28;20042;-79
2024/01/05 04:03:08;;;;;;;14.60;7.03;;;;;;;;;;2064502;28;20019;-78
2024/01/05 04:04:29;;;;;;;11.30;7.10;;;;;;;;;;2059650;28;20023;-78
2024/01/05 04:05:50;;;;;;;9.30;6.63;;;;;;;;;;2065635;28;20082;-78
2024/01/05 04:07:11;;;;;;;14.35;7.28;;;;;;;;;;2064902;28;20113;-79
2024/01/05 04:08:32;;;;;;;15.68;7.05;;;;;;;;;;2073690;28;20026;-79
2024/01/05 04:09:52;;;;;;;11.50;7.22;;;;;;;;;;2073655;28;20033;-78
2024/01/05 04:11:20;;;;;;;16.20;7.57;;;;;;;;;;2073026;28;20030;-78
2024/01/05 04:12:41;;;;;;;12.52;7.28;;;;;;;;;;2077826;28;20025;-78
2024/01/05 04:14:02;;;;;;;14.30;7.07;;;;;;;;;;2080804;28;20034;-78
2024/01/05 04:15:23;;;;;;;14.15;7.05;;;;;;;;;;2072987;28;20028;-78
2024/01/05 04:16:44;;;;;;;13.05;7.82;;;;;;;;;;2079381;28;20022;-78
2024/01/05 04:18:05;;;;;;;13.15;7.13;;;;;;;;;;2073682;28;20450;-78
2024/01/05 04:19:26;;;;;;;10.30;7.70;;;;;;;;;;2078538;28;20033;-79
2024/01/05 04:20:47;;;;;;;8.05;6.40;;;;;;;;;;2066204;28;20035;-78
2024/01/05 04:22:08;;;;;;;10.55;7.07;;;;;;;;;;2056663;28;20403;-78
2024/01/05 04:23:29;;;;;;;8.93;6.18;;;;;;;;;;2068503;28;20093;-78
2024/01/05 04:24:50;;;;;;;14.25;7.10;;;;;;;;;;2059099;28;20027;-78
2024/01/05 04:26:11;;;;;;;10.05;7.43;;;;;;;;;;2070221;28;20018;-78
2024/01/05 04:27:32;;;;;;;11.55;7.38;;;;;;;;;;2073834;28;20022;-78
2024/01/05 04:28:53;;;;;;;15.85;6.85;;;;;;;;;;2065463;28;20043;-78
2024/01/05 04:30:15;;;;;;;11.90;7.22;;;;;;;;;;2070100;28;20030;-78
2024/01/05 04:31:35;;;;;;;11.88;6.82;;;;;;;;;;2064236;28;20030;-79
2024/01/05 04:32:56;;;;;;;11.68;7.32;;;;;;;;;;2070888;28;20389;-78
2024/01/05 04:34:17;;;;;;;10.23;6.35;;;;;;;;;;2064683;28;20049;-78
2024/01/05 04:35:38;;;;;;;13.13;6.43;;;;;;;;;;2064662;28;20038;-78
2024/01/05 04:36:59;;;;;;;11.18;7.07;;;;;;;;;;2062149;28;20026;-78
2024/01/05 04:38:20;;;;;;;11.57;7.00;;;;;;;;;;2065314;28;20027;-79
2024/01/05 04:39:43;;;;;;;10.88;6.30;;;;;;;;;;2069802;28;20492;-78
2024/01/05 04:41:04;;;;;;;12.10;7.15;;;;;;;;;;2073484;28;20093;-79
2024/01/05 04:42:26;;;;;;;12.88;6.90;;;;;;;;;;2064651;28;20049;-79
2024/01/05 04:43:49;;;;;;;14.65;7.95;;;;;;;;;;2071153;28;20034;-79
2024/01/05 04:45:11;;;;;;;15.55;7.13;;;;;;;;;;2064070;28;20094;-78
2024/01/05 04:46:32;;;;;;;13.07;7.38;;;;;;;;;;2071024;28;20030;-78
2024/01/05 04:47:53;;;;;;;8.35;6.43;;;;;;;;;;2064240;28;20029;-79
2024/01/05 04:49:14;;;;;;;16.00;7.03;;;;;;;;;;2065305;28;20030;-78
2024/01/05 04:50:35;;;;;;;10.30;6.65;;;;;;;;;;2078684;28;20642;-78
2024/01/05 04:51:55;;;;;;;10.65;6.57;;;;;;;;;;2075167;28;20041;-78
2024/01/05 04:53:16;;;;;;;12.77;7.20;;;;;;;;;;2072917;28;20030;-78
2024/01/05 04:54:37;;;;;;;10.13;7.13;;;;;;;;;;2064173;28;20026;-78
2024/01/05 04:55:58;;;;;;;11.98;6.90;;;;;;;;;;2069333;28;20026;-78
2024/01/05 04:57:19;;;;;;;17.23;7.45;;;;;;;;;;2072614;28;20044;-78
2024/01/05 04:58:40;;;;;;;9.38;6.43;;;;;;;;;;2072515;28;20048;-78
2024/01/05 05:00:01;;;;;;;8.23;6.50;;;;;;;;;;2071606;28;20041;-78
2024/01/05 05:01:22;;;;;;;18.73;7.63;;;;;;;;;;2073435;28;20034;-79
2024/01/05 05:02:43;;;;;;;10.80;7.25;;;;;;;;;;2065079;28;20038;-78
2024/01/05 05:04:04;;;;;;;12.48;8.18;;;;;;;;;;2070109;28;20032;-78
2024/01/05 05:05:25;;;;;;;12.93;6.88;;;;;;;;;;2065083;28;20522;-79
2024/01/05 05:06:46;;;;;;;13.93;7.03;;;;;;;;;;2071190;28;20438;-78
2024/01/05 05:08:10;;;;;;;8.60;6.13;;;;;;;;;;2065180;28;20483;-78
2024/01/05 05:09:31;;;;;;;13.35;6.43;;;;;;;;;;2070911;28;20037;-78
2024/01/05 05:10:52;;;;;;;12.13;7.78;;;;;;;;;;2063886;28;20076;-79
2024/01/05 05:12:13;;;;;;;12.18;6.88;;;;;;;;;;2072052;28;20061;-78
2024/01/05 05:13:34;;;;;;;14.70;6.70;;;;;;;;;;2072810;28;20439;-79
2024/01/05 05:14:55;;;;;;;13.93;6.93;;;;;;;;;;2078756;28;20033;-78
2024/01/05 05:16:15;;;;;;;13.75;7.00;;;;;;;;;;2067254;28;20401;-79
2024/01/05 05:17:36;;;;;;;11.52;6.75;;;;;;;;;;2071365;28;20120;-78
2024/01/05 05:18:57;;;;;;;11.60;6.93;;;;;;;;;;2072181;28;20117;-78
2024/01/05 05:20:18;;;;;;;11.40;7.25;;;;;;;;;;2072721;28;20026;-78
2024/01/05 05:21:39;;;;;;;10.55;6.68;;;;;;;;;;2073502;28;20041;-78
2024/01/05 05:23:00;;;;;;;11.93;6.57;;;;;;;;;;2065362;28;20117;-78
2024/01/05 05:24:21;;;;;;;8.05;6.38;;;;;;;;;;2063531;28;20023;-78
2024/01/05 05:25:42;;;;;;;11.63;6.88;;;;;;;;;;2066536;28;20421;-78
2024/01/05 05:27:03;;;;;;;11.13;7.22;;;;;;;;;;2063730;28;20031;-78
2024/01/05 05:28:24;;;;;;;11.13;6.85;;;;;;;;;;2069829;28;20030;-78
2024/01/05 05:29:44;;;;;;;9.48;6.53;;;;;;;;;;2073195;28;20381;-78
2024/01/05 05:31:05;;;;;;;14.23;6.53;;;;;;;;;;2058279;28;20038;-78
2024/01/05 05:32:26;;;;;;;12.75;6.28;;;;;;;;;;2061242;28;20039;-79
2024/01/05 05:33:47;;;;;;;11.88;6.90;;;;;;;;;;2063743;28;20489;-78
2024/01/05 05:35:08;;;;;;;10.65;7.45;;;;;;;;;;2057829;28;20086;-78
2024/01/05 05:36:29;;;;;;;10.15;6.88;;;;;;;;;;2055099;28;20031;-78
2024/01/05 05:37:50;;;;;;;15.38;7.15;;;;;;;;;;2070154;28;20044;-79
2024/01/05 05:39:11;;;;;;;12.25;6.95;;;;;;;;;;2071060;28;20087;-78
2024/01/05 05:40:32;;;;;;;16.40;7.00;;;;;;;;;;2065709;28;20042;-79
2024/01/05 05:41:53;;;;;;;7.93;6.38;;;;;;;;;;2070294;28;20026;-77
2024/01/05 05:43:14;;;;;;;11.32;6.65;;;;;;;;;;2064619;28;20470;-78
2024/01/05 05:44:35;;;;;;;12.47;6.37;;;;;;;;;;2056914;28;20031;-78
2024/01/05 05:45:56;;;;;;;10.90;6.70;;;;;;;;;;2070356;28;20037;-78
2024/01/05 05:47:17;;;;;;;14.80;7.68;;;;;;;;;;2072461;28;20034;-78
2024/01/05 05:48:38;;;;;;;13.18;7.65;;;;;;;;;;2072539;28;20029;-79
2024/01/05 05:49:59;;;;;;;13.10;6.40;;;;;;;;;;2071729;28;20398;-78
2024/01/05 05:51:20;;;;;;;10.75;6.45;;;;;;;;;;2070487;28;20141;-78
2024/01/05 05:52:41;;;;;;;9.75;6.50;;;;;;;;;;2063410;28;20547;-78
2024/01/05 05:54:02;;;;;;;9.43;6.97;;;;;;;;;;2069841;28;20053;-78
2024/01/05 05:55:23;;;;;;;6.80;5.95;;;;;;;;;;2056837;28;20039;-78
2024/01/05 05:56:44;;;;;;;14.18;6.65;;;;;;;;;;2057780;28;20030;-78
2024/01/05 05:58:04;;;;;;;9.93;7.03;;;;;;;;;;2061271;28;20054;-78
2024/01/05 05:59:26;;;;;;;13.10;7.65;;;;;;;;;;2056625;28;20035;-78
2024/01/05 06:00:46;;;;;;;14.63;7.78;;;;;;;;;;2070003;28;20053;-78
2024/01/05 06:02:07;;;;;;;11.15;7.15;;;;;;;;;;2072943;28;20110;-78
2024/01/05 06:03:28;;;;;;;15.40;7.72;;;;;;;;;;2064911;28;20521;-78
2024/01/05 06:04:49;;;;;;;14.75;7.32;;;;;;;;;;2069637;28;20030;-78
2024/01/05 06:06:18;;;;;;;10.43;7.38;;;;;;;;;;2072938;28;20034;-79
2024/01/05 06:07:39;;;;;;;7.93;6.93;;;;;;;;;;2072752;28;20042;-78
2024/01/05 06:09:00;;;;;;;14.15;7.55;;;;;;;;;;2063767;28;20136;-77
2024/01/05 06:10:22;;;;;;;9.75;6.95;;;;;;;;;;2064498;28;20037;-78
2024/01/05 06:11:43;;;;;;;10.40;6.82;;;;;;;;;;2056770;28;20062;-78
2024/01/05 06:13:04;;;;;;;8.23;6.50;;;;;;;;;;2069920;28;20038;-78
2024/01/05 06:14:24;;;;;;;12.57;7.20;;;;;;;;;;2072441;28;20022;-78
2024/01/05 06:15:45;;;;;;;10.02;6.40;;;;;;;;;;2064607;28;20058;-78
2024/01/05 06:17:06;;;;;;;10.23;7.00;;;;;;;;;;2069483;28;20026;-78
2024/01/05 06:18:28;;;;;;;10.80;6.63;;;;;;;;;;2063664;28;20045;-78
2024/01/05 06:19:50;;;;;;;13.15;6.18;;;;;;;;;;2062322;28;20027;-78
2024/01/05 06:21:11;;;;;;;10.68;6.50;;;;;;;;;;2068914;28;20026;-78
2024/01/05 06:22:32;;;;;;;11.10;6.38;;;;;;;;;;2071219;28;20034;-79
2024/01/05 06:23:53;;;;;;;6.72;6.05;;;;;;;;;;2064398;28;20394;-78
2024/01/05 06:25:14;;;;;;;9.10;6.68;;;;;;;;;;2065231;28;20030;-79
2024/01/05 06:26:35;;;;;;;11.05;7.07;;;;;;;;;;2063220;28;20030;-78
2024/01/05 06:27:56;;;;;;;6.82;6.10;;;;;;;;;;2065050;28;20491;-79
2024/01/05 06:29:17;;;;;;;6.90;5.70;;;;;;;;;;2056610;28;20031;-78
2024/01/05 06:30:38;;;;;;;7.35;6.13;;;;;;;;;;2068182;28;20052;-78
2024/01/05 06:31:59;;;;;;;6.70;5.80;;;;;;;;;;2064397;28;20105;-78
2024/01/05 06:33:20;;;;;;;8.82;6.97;;;;;;;;;;2064567;28;20026;-78
2024/01/05 06:34:41;;;;;;;6.70;6.10;;;;;;;;;;2062416;28;20443;-78
2024/01/05 06:36:02;;;;;;;6.60;5.93;;;;;;;;;;2070935;28;20034;-78
2024/01/05 06:37:23;;;;;;;7.97;6.30;;;;;;;;;;2066499;28;20030;-78
2024/01/05 06:38:44;;;;;;;7.10;5.85;;;;;;;;;;2069988;28;20053;-78
2024/01/05 06:40:05;;;;;;;7.38;6.63;;;;;;;;;;2074469;28;20030;-78
2024/01/05 06:41:27;;;;;;;7.00;6.30;;;;;;;;;;2066804;28;20030;-78
2024/01/05 06:42:48;;;;;;;5.72;5.32;;;;;;;;;;2055614;28;20035;-79
2024/01/05 06:44:08;;;;;;;6.82;6.13;;;;;;;;;;2069118;28;20034;-78
2024/01/05 06:45:29;;;;;;;6.93;6.30;;;;;;;;;;2066285;28;20466;-79
2024/01/05 06:46:50;;;;;;;7.40;6.68;;;;;;;;;;2066003;28;20026;-78
2024/01/05 06:48:11;;;;;;;7.07;6.20;;;;;;;;;;2060662;28;20023;-78
2024/01/05 06:49:32;;;;;;;9.35;6.78;;;;;;;;;;2062500;28;20030;-78
2024/01/05 06:50:53;;;;;;;6.70;6.10;;;;;;;;;;2066234;28;20125;-78
2024/01/05 06:52:14;;;;;;;8.63;7.10;;;;;;;;;;2064554;28;20398;-78
2024/01/05 06:53:35;;;;;;;8.32;6.65;;;;;;;;;;2066529;28;20038;-78
2024/01/05 06:54:55;;;;;;;6.68;5.95;;;;;;;;;;2070505;28;20038;-78
2024/01/05 06:56:18;;;;;;;6.95;5.50;;;;;;;;;;2064897;28;20029;-78
2024/01/05 06:57:39;;;;;;;6.25;5.70;;;;;;;;;;2069903;28;20034;-78
2024/01/05 06:59:01;;;;;;;7.60;5.75;;;;;;;;;;2067715;28;20037;-78
2024/01/05 07:00:23;;;;;;;9.23;6.72;;;;;;;;;;2063429;28;20552;-79
2024/01/05 07:01:43;;;;;;;7.68;5.88;;;;;;;;;;2057777;28;20035;-78
2024/01/05 07:03:04;;;;;;;6.68;6.05;;;;;;;;;;2061871;28;20517;-79
2024/01/05 07:04:25;;;;;;;8.45;6.80;;;;;;;;;;2065381;28;20034;-78
2024/01/05 07:05:46;;;;;;;6.63;6.07;;;;;;;;;;2066532;28;20126;-80
2024/01/05 07:07:07;;;;;;;8.13;6.40;;;;;;;;;;2064324;28;20049;-78
2024/01/05 07:08:28;;;;;;;9.05;6.53;;;;;;;;;;2058154;28;20680;-79
2024/01/05 07:09:49;;;;;;;7.50;6.28;;;;;;;;;;2061673;28;20117;-77
2024/01/05 07:11:18;;;;;;;6.95;6.45;;;;;;;;;;2065154;28;20026;-78
2024/01/05 07:12:39;;;;;;;6.88;5.93;;;;;;;;;;2074546;28;20064;-78
2024/01/05 07:14:01;;;;;;;7.13;6.50;;;;;;;;;;2074228;28;20026;-78
2024/01/05 07:15:22;;;;;;;8.32;6.75;;;;;;;;;;2070737;28;20092;-78
2024/01/05 07:16:42;;;;;;;6.90;5.90;;;;;;;;;;2079786;28;20041;-78
2024/01/05 07:18:05;;;;;;;7.45;6.22;;;;;;;;;;2073549;28;20077;-78
2024/01/05 07:19:26;;;;;;;6.65;6.05;;;;;;;;;;2080322;28;20029;-78
2024/01/05 07:20:47;;;;;;;9.90;6.15;;;;;;;;;;2081159;28;20486;-78
2024/01/05 07:22:08;;;;;;;7.55;6.88;;;;;;;;;;2083017;28;20033;-78
2024/01/05 07:23:29;;;;;;;6.97;6.28;;;;;;;;;;2075262;28;20029;-78
2024/01/05 07:24:50;;;;;;;7.32;6.63;;;;;;;;;;2065792;28;20035;-78
2024/01/05 07:26:11;;;;;;;7.20;6.50;;;;;;;;;;2063914;28;20408;-78
2024/01/05 07:27:32;;;;;;;7.63;6.10;;;;;;;;;;2070272;28;20474;-78
2024/01/05 07:28:53;;;;;;;9.13;6.72;;;;;;;;;;2068039;28;20037;-78
2024/01/05 07:30:14;;;;;;;9.25;6.13;;;;;;;;;;2071439;28;20030;-78
2024/01/05 07:31:35;;;;;;;6.60;5.90;;;;;;;;;;2073531;28;20037;-79
2024/01/05 07:32:55;;;;;;;7.32;6.60;;;;;;;;;;2064567;28;20490;-78
2024/01/05 07:34:16;;;;;;;6.13;5.53;;;;;;;;;;2066152;28;20049;-78
2024/01/05 07:35:37;;;;;;;7.75;6.10;;;;;;;;;;2062311;28;20138;-78
2024/01/05 07:36:58;;;;;;;6.38;5.88;;;;;;;;;;2071353;28;20037;-78
2024/01/05 07:38:19;;;;;;;6.28;5.72;;;;;;;;;;2071866;28;20030;-78
2024/01/05 07:39:40;;;;;;;6.93;5.80;;;;;;;;;;2069635;28;20030;-78
2024/01/05 07:41:02;;;;;;;6.65;6.15;;;;;;;;;;2066084;28;20041;-78
2024/01/05 07:42:25;;;;;;;6.95;6.35;;;;;;;;;;2071111;28;20454;-78
2024/01/05 07:43:47;;;;;;;5.80;5.40;;;;;;;;;;2073696;28;20038;-79
2024/01/05 07:45:08;;;;;;;6.45;6.00;;;;;;;;;;2066194;28;20030;-79
2024/01/05 07:46:30;;;;;;;8.40;6.07;;;;;;;;;;2070400;28;20029;-78
2024/01/05 07:47:52;;;;;;;7.47;5.35;;;;;;;;;;2064975;28;20447;-78
2024/01/05 07:49:13;;;;;;;7.13;6.45;;;;;;;;;;2062700;28;20018;-78
2024/01/05 07:50:34;;;;;;;7.47;6.68;;;;;;;;;;2063156;28;20398;-79
2024/01/05 07:51:55;;;;;;;7.27;6.57;;;;;;;;;;2068831;28;20030;-78
2024/01/05 07:53:16;;;;;;;6.30;5.70;;;;;;;;;;2073576;28;20049;-78
2024/01/05 07:54:39;;;;;;;7.25;6.35;;;;;;;;;;2072106;28;20370;-78
2024/01/05 07:56:00;;;;;;;6.18;5.60;;;;;;;;;;2072816;28;20030;-78
2024/01/05 07:57:21;;;;;;;7.63;6.77;;;;;;;;;;2064956;28;20031;-77
2024/01/05 07:58:42;;;;;;;9.15;5.65;;;;;;;;;;2070225;28;20454;-77
2024/01/05 08:00:03;;;;;;;6.35;5.70;;;;;;;;;;2067951;28;20031;-78
2024/01/05 08:01:24;;;;;;;7.15;6.40;;;;;;;;;;2061704;28;20027;-78